Time;durP1;ratioP1;P1;durP2;ratioP2;P2;SDS_P1;SDS_P2;PMS_P1;PMS_P2;Temp;Humidity;BMP_temperature;BMP_pressure;BME280_temperature;BME280_humidity;BME280_pressure;Samples;Min_cycle;Max_cycle;Signal;HPM_P1;HPM_P2
2022/12/27 00:02:04;;;;;;;14.17;7.73;;;4.90;84.50;;;;;;5070880;28;20179;-76
2022/12/27 00:04:30;;;;;;;10.23;7.37;;;4.80;84.00;;;;;;5077803;28;20266;-77
2022/12/27 00:06:56;;;;;;;14.30;7.60;;;4.80;84.60;;;;;;5079995;28;20181;-77
2022/12/27 00:09:21;;;;;;;14.37;8.80;;;4.80;85.20;;;;;;5068133;28;20206;-77
2022/12/27 00:11:47;;;;;;;16.43;8.70;;;4.70;84.70;;;;;;5069018;28;20663;-75
2022/12/27 00:14:13;;;;;;;15.63;9.27;;;4.70;84.70;;;;;;5074366;28;20187;-76
2022/12/27 00:16:39;;;;;;;12.20;8.07;;;4.70;84.30;;;;;;5054499;28;20743;-76
2022/12/27 00:19:05;;;;;;;16.57;8.30;;;4.70;84.20;;;;;;5072697;28;20262;-76
2022/12/27 00:21:30;;;;;;;12.13;7.13;;;4.70;85.20;;;;;;5071832;28;20178;-75
2022/12/27 00:23:56;;;;;;;11.20;6.67;;;4.60;84.30;;;;;;5073109;28;20243;-76
2022/12/27 00:26:31;;;;;;;11.43;7.40;;;4.60;85.50;;;;;;5073311;28;20183;-76
2022/12/27 00:28:57;;;;;;;9.30;6.37;;;4.60;85.30;;;;;;5068218;28;20181;-76
2022/12/27 00:31:24;;;;;;;15.73;8.17;;;4.50;85.40;;;;;;5074327;28;20190;-76
2022/12/27 00:33:53;;;;;;;10.63;6.53;;;4.60;85.30;;;;;;5070698;28;20720;-76
2022/12/27 00:36:21;;;;;;;13.23;6.40;;;4.50;84.60;;;;;;5070011;28;20214;-77
2022/12/27 00:38:48;;;;;;;16.03;7.73;;;4.50;84.30;;;;;;5076924;28;20189;-77
2022/12/27 00:41:14;;;;;;;12.67;7.20;;;4.50;83.90;;;;;;5061796;28;20182;-77
2022/12/27 00:43:40;;;;;;;14.43;6.97;;;4.50;83.60;;;;;;5071893;28;20179;-77
2022/12/27 00:46:06;;;;;;;14.67;7.90;;;4.50;83.40;;;;;;5074250;28;20860;-76
2022/12/27 00:48:32;;;;;;;12.60;8.03;;;4.60;83.20;;;;;;5075484;28;20189;-77
2022/12/27 00:51:04;;;;;;;20.83;10.97;;;4.60;83.60;;;;;;5074408;28;20174;-77
2022/12/27 00:53:31;;;;;;;22.63;12.47;;;4.60;84.20;;;;;;5073624;28;20186;-76
2022/12/27 00:55:57;;;;;;;22.87;14.00;;;4.60;83.80;;;;;;5069333;28;20217;-77
2022/12/27 00:58:23;;;;;;;31.23;16.47;;;4.50;84.10;;;;;;5073299;28;21134;-76
2022/12/27 01:00:49;;;;;;;39.53;18.37;;;4.50;84.70;;;;;;5074889;28;20667;-76
2022/12/27 01:03:16;;;;;;;36.97;18.87;;;4.40;84.30;;;;;;5074894;28;20626;-77
2022/12/27 01:05:42;;;;;;;47.53;22.40;;;4.40;84.20;;;;;;5074694;28;20190;-76
2022/12/27 01:08:08;;;;;;;42.77;22.67;;;4.40;84.70;;;;;;5050826;28;20188;-78
2022/12/27 01:10:34;;;;;;;53.77;24.57;;;4.30;83.60;;;;;;5076475;28;20192;-77
2022/12/27 01:13:01;;;;;;;44.37;23.20;;;4.30;84.10;;;;;;5071922;28;20281;-77
2022/12/27 01:15:27;;;;;;;54.77;25.63;;;4.20;83.90;;;;;;5071894;28;20218;-77
2022/12/27 01:17:53;;;;;;;50.60;27.90;;;4.20;83.20;;;;;;5071039;28;20204;-76
2022/12/27 01:20:18;;;;;;;58.27;27.07;;;4.20;84.20;;;;;;5070474;28;20989;-76
2022/12/27 01:22:44;;;;;;;61.10;28.47;;;4.20;84.00;;;;;;5072474;28;21055;-76
2022/12/27 01:25:10;;;;;;;61.37;28.73;;;4.20;84.10;;;;;;5068401;28;20183;-77
2022/12/27 01:27:35;;;;;;;57.37;28.23;;;4.20;84.00;;;;;;5067256;28;20582;-76
2022/12/27 01:30:03;;;;;;;59.53;28.50;;;4.20;83.90;;;;;;5068787;28;20209;-76
2022/12/27 01:32:32;;;;;;;63.67;28.73;;;4.20;84.40;;;;;;5069433;28;20262;-76
2022/12/27 01:34:58;;;;;;;60.90;30.53;;;4.20;85.30;;;;;;5073905;28;20220;-76
2022/12/27 01:37:26;;;;;;;67.27;29.97;;;4.20;86.20;;;;;;5073567;28;20190;-76
2022/12/27 01:39:51;;;;;;;58.93;27.20;;;4.20;86.00;;;;;;5072408;28;20187;-75
2022/12/27 01:45:23;;;;;;;19.73;12.30;;;4.20;86.00;;;;;;5072923;28;20225;-76
2022/12/27 01:47:54;;;;;;;22.87;12.13;;;3.90;86.40;;;;;;5072227;28;20202;-75
2022/12/27 01:50:26;;;;;;;20.07;10.77;;;3.90;86.30;;;;;;5075248;28;20181;-77
2022/12/27 01:53:17;;;;;;;16.30;10.20;;;3.90;86.70;;;;;;5069856;28;20182;-76
2022/12/27 01:55:48;;;;;;;18.63;10.27;;;3.90;87.00;;;;;;5074926;28;20810;-76
2022/12/27 01:58:24;;;;;;;16.93;11.17;;;4.00;87.40;;;;;;5070872;28;20287;-75
2022/12/27 02:00:50;;;;;;;22.03;12.03;;;4.00;87.10;;;;;;5071145;28;20181;-76
2022/12/27 02:03:31;;;;;;;15.50;9.97;;;4.00;87.50;;;;;;5071229;28;20209;-77
2022/12/27 02:05:59;;;;;;;13.27;8.87;;;4.00;87.10;;;;;;5070124;28;20300;-76
2022/12/27 02:08:35;;;;;;;14.87;9.73;;;3.90;86.90;;;;;;5072546;28;20247;-77
2022/12/27 02:11:03;;;;;;;14.07;9.17;;;3.90;86.80;;;;;;5073561;28;20315;-77
2022/12/27 02:13:32;;;;;;;14.67;9.13;;;4.00;87.10;;;;;;5073417;28;20189;-77
2022/12/27 02:15:58;;;;;;;18.37;10.13;;;4.00;87.60;;;;;;5073612;28;20247;-76
2022/12/27 02:18:24;;;;;;;16.97;9.57;;;4.00;87.90;;;;;;5077832;28;20171;-76
2022/12/27 02:21:01;;;;;;;12.60;8.60;;;4.00;88.10;;;;;;5072352;28;20186;-76
2022/12/27 02:24:05;;;;;;;11.80;8.60;;;4.00;87.80;;;;;;5074533;28;20221;-76
2022/12/27 02:26:52;;;;;;;12.03;7.53;;;4.00;88.10;;;;;;5038273;28;20206;-76
2022/12/27 02:29:32;;;;;;;15.00;9.10;;;3.80;87.80;;;;;;5036581;28;20180;-75
2022/12/27 02:32:16;;;;;;;19.87;8.53;;;3.80;88.00;;;;;;5036414;28;20695;-76
2022/12/27 02:34:58;;;;;;;16.67;8.17;;;3.80;87.50;;;;;;5039253;28;20196;-76
2022/12/27 02:37:28;;;;;;;17.23;8.67;;;3.80;87.60;;;;;;5041483;28;20883;-78
2022/12/27 02:53:02;;;;;;;13.03;7.70;;;3.80;87.30;;;;;;5042127;28;20278;-77
2022/12/27 02:54:47;;;;;;;8.60;7.00;;;3.90;86.60;;;;;;5041189;28;20680;-77
2022/12/27 02:57:40;;;;;;;13.70;7.10;;;3.90;86.40;;;;;;5040152;28;20692;-77
2022/12/27 03:03:45;;;;;;;10.83;6.50;;;3.90;86.10;;;;;;5035062;28;20641;-77
2022/12/27 03:06:41;;;;;;;11.63;8.00;;;3.90;86.30;;;;;;5044438;28;20198;-76
2022/12/27 03:18:41;;;;;;;17.03;9.60;;;3.90;85.90;;;;;;5047756;28;21820;-76
2022/12/27 03:26:44;;;;;;;21.17;12.10;;;3.90;85.90;;;;;;5047240;28;20206;-77
2022/12/27 03:34:57;;;;;;;29.53;13.50;;;3.80;86.00;;;;;;5047329;28;20285;-77
2022/12/27 03:40:33;;;;;;;18.70;10.60;;;3.80;86.10;;;;;;5060201;28;20679;-76
2022/12/27 03:43:12;;;;;;;14.93;9.57;;;3.80;86.30;;;;;;5052291;28;20842;-77
2022/12/27 03:48:56;;;;;;;14.90;7.63;;;3.80;87.20;;;;;;5071786;28;20878;-76
2022/12/27 03:51:24;;;;;;;15.00;7.77;;;3.80;87.80;;;;;;5071023;28;20178;-76
2022/12/27 03:53:56;;;;;;;10.57;7.27;;;3.80;87.80;;;;;;5070996;28;20203;-77
2022/12/27 03:56:22;;;;;;;9.40;6.63;;;3.70;87.90;;;;;;5074665;28;20205;-76
2022/12/27 03:58:47;;;;;;;7.20;6.17;;;3.70;87.20;;;;;;5070578;28;20712;-76
2022/12/27 04:01:13;;;;;;;9.90;5.87;;;3.70;87.40;;;;;;5075017;28;20291;-78
2022/12/27 04:03:38;;;;;;;10.97;6.07;;;3.70;87.40;;;;;;5071189;28;20194;-75
2022/12/27 04:06:04;;;;;;;9.70;5.90;;;3.70;87.50;;;;;;5071885;28;20186;-75
2022/12/27 04:35:51;;;;;;;12.10;7.03;;;3.60;86.90;;;;;;5071508;28;20225;-76
2022/12/27 04:38:17;;;;;;;16.20;8.80;;;3.60;87.10;;;;;;5072650;28;20186;-76
2022/12/27 04:55:29;;;;;;;28.17;13.33;;;3.50;86.60;;;;;;4965054;28;20190;-75
2022/12/27 04:57:56;;;;;;;31.87;14.93;;;3.60;86.50;;;;;;4942900;28;20684;-75
2022/12/27 05:03:21;;;;;;;33.40;15.33;;;3.60;87.10;;;;;;4957848;28;20301;-77
2022/12/27 05:05:48;;;;;;;31.83;16.47;;;3.60;87.30;;;;;;4965009;28;20212;-77
2022/12/27 05:13:58;;;;;;;20.80;13.37;;;3.50;87.80;;;;;;4974685;28;20638;-77
2022/12/27 05:16:28;;;;;;;23.00;9.70;;;3.50;88.30;;;;;;4992932;28;20242;-76
2022/12/27 05:18:54;;;;;;;17.97;9.37;;;3.40;88.50;;;;;;4993755;28;20197;-76
2022/12/27 05:21:20;;;;;;;8.43;6.80;;;3.40;89.00;;;;;;4989067;28;20243;-76
2022/12/27 05:26:31;;;;;;;7.27;5.27;;;3.30;89.40;;;;;;4992746;28;20200;-77
2022/12/27 05:28:58;;;;;;;7.03;4.80;;;3.20;89.00;;;;;;4989376;28;20224;-77
2022/12/27 05:31:25;;;;;;;6.80;4.60;;;3.20;88.90;;;;;;5005522;28;20203;-77
2022/12/27 05:33:52;;;;;;;7.43;5.53;;;3.20;88.90;;;;;;5071830;28;20937;-77
2022/12/27 05:36:18;;;;;;;7.10;5.13;;;3.30;89.50;;;;;;5070395;28;20851;-77
2022/12/27 05:38:44;;;;;;;6.47;5.23;;;3.30;89.40;;;;;;5055250;28;21330;-76
2022/12/27 05:41:10;;;;;;;6.97;4.70;;;3.30;89.40;;;;;;5069171;28;20189;-77
2022/12/27 05:43:35;;;;;;;9.20;5.37;;;3.30;89.00;;;;;;5068552;28;20185;-77
2022/12/27 05:46:07;;;;;;;8.67;5.47;;;3.30;88.80;;;;;;5077234;28;20204;-77
2022/12/27 05:48:33;;;;;;;8.40;6.10;;;3.40;88.80;;;;;;5072395;28;20193;-76
2022/12/27 05:51:04;;;;;;;10.40;6.17;;;3.40;88.60;;;;;;5073329;28;20617;-77
2022/12/27 05:53:29;;;;;;;9.77;6.27;;;3.40;88.40;;;;;;5071838;28;20652;-76
2022/12/27 05:55:56;;;;;;;11.47;7.67;;;3.40;88.20;;;;;;5067690;28;20206;-75
2022/12/27 05:58:22;;;;;;;26.03;11.33;;;3.40;88.40;;;;;;5070131;28;20175;-78
2022/12/27 06:00:48;;;;;;;24.60;12.60;;;3.40;88.30;;;;;;5071916;28;21482;-76
2022/12/27 06:03:14;;;;;;;37.63;14.87;;;3.30;88.10;;;;;;5071303;28;20179;-77
2022/12/27 06:05:39;;;;;;;34.73;18.23;;;3.30;87.90;;;;;;5054321;28;20208;-77
2022/12/27 06:08:05;;;;;;;40.90;19.40;;;3.30;88.10;;;;;;5066940;28;20231;-78
2022/12/27 06:10:31;;;;;;;41.47;21.43;;;3.30;88.10;;;;;;5078242;28;20182;-77
2022/12/27 06:12:59;;;;;;;46.23;23.33;;;3.20;88.10;;;;;;5079234;28;20185;-75
2022/12/27 06:15:24;;;;;;;40.60;22.43;;;3.20;88.40;;;;;;5076504;28;20289;-76
2022/12/27 06:17:50;;;;;;;43.83;21.33;;;3.20;88.40;;;;;;5077596;28;20585;-77
2022/12/27 06:20:16;;;;;;;49.93;22.17;;;3.20;88.30;;;;;;5077224;28;20186;-77
2022/12/27 06:22:42;;;;;;;49.97;23.47;;;3.20;88.60;;;;;;5074983;28;20262;-77
2022/12/27 06:25:07;;;;;;;46.17;23.30;;;3.20;88.80;;;;;;5075140;28;20176;-76
2022/12/27 06:27:33;;;;;;;45.03;21.83;;;3.10;88.90;;;;;;5074356;28;20194;-76
2022/12/27 06:29:59;;;;;;;45.43;23.57;;;3.10;89.00;;;;;;5075177;28;20183;-77
2022/12/27 06:32:24;;;;;;;40.30;22.60;;;3.10;89.00;;;;;;5078350;28;20192;-76
2022/12/27 06:34:50;;;;;;;45.03;20.87;;;3.10;89.30;;;;;;5074750;28;20294;-76
2022/12/27 06:37:16;;;;;;;37.43;20.03;;;3.20;89.60;;;;;;5077453;28;20214;-77
2022/12/27 06:39:43;;;;;;;42.47;21.33;;;3.40;90.20;;;;;;5054702;28;20640;-77
2022/12/27 06:42:09;;;;;;;50.20;22.73;;;3.60;90.60;;;;;;5076754;28;20249;-76
2022/12/27 06:44:35;;;;;;;38.90;20.70;;;3.80;91.20;;;;;;5073864;28;20248;-75
2022/12/27 06:47:00;;;;;;;43.23;23.93;;;4.00;91.40;;;;;;5075004;28;20187;-77
2022/12/27 06:49:26;;;;;;;41.63;22.77;;;4.30;91.50;;;;;;5074704;28;20247;-74
2022/12/27 06:51:52;;;;;;;49.77;25.03;;;4.60;91.00;;;;;;5079350;28;20174;-78
2022/12/27 06:54:17;;;;;;;58.30;27.47;;;4.80;90.20;;;;;;5075410;28;20214;-78
2022/12/27 06:56:43;;;;;;;48.00;26.13;;;5.10;89.90;;;;;;5079582;28;20210;-79
2022/12/27 06:59:09;;;;;;;47.80;24.23;;;5.40;89.00;;;;;;5056672;28;21057;-78
2022/12/27 07:01:34;;;;;;;42.47;21.53;;;5.60;89.70;;;;;;5074978;28;20261;-78
2022/12/27 07:04:00;;;;;;;46.17;21.90;;;6.00;90.10;;;;;;5079661;28;20206;-79
2022/12/27 07:06:28;;;;;;;54.10;22.73;;;6.40;90.10;;;;;;5077040;28;20316;-79
2022/12/27 07:08:55;;;;;;;42.83;22.80;;;6.80;89.40;;;;;;5077104;28;20176;-79
2022/12/27 07:11:21;;;;;;;59.77;28.40;;;7.20;89.10;;;;;;5059926;28;20743;-75
2022/12/27 07:13:50;;;;;;;58.30;30.63;;;7.50;87.00;;;;;;5086701;28;20606;-77
2022/12/27 07:16:19;;;;;;;65.83;31.73;;;7.70;84.90;;;;;;5079143;28;20206;-76
2022/12/27 07:18:45;;;;;;;56.70;30.67;;;7.70;83.50;;;;;;5071400;28;20175;-76
2022/12/27 07:21:15;;;;;;;62.23;31.10;;;7.80;83.50;;;;;;5076297;28;20245;-76
2022/12/27 07:23:40;;;;;;;64.47;30.97;;;7.80;82.70;;;;;;5079512;28;20174;-76
2022/12/27 07:26:15;;;;;;;52.67;28.90;;;7.70;82.20;;;;;;5076897;28;20259;-75
2022/12/27 07:28:42;;;;;;;66.47;30.30;;;7.70;81.90;;;;;;5077986;28;20660;-76
2022/12/27 07:31:10;;;;;;;58.23;29.83;;;7.60;81.80;;;;;;5076813;28;20178;-75
2022/12/27 07:33:37;;;;;;;52.00;29.13;;;7.50;81.90;;;;;;5077549;28;20957;-76
2022/12/27 07:36:05;;;;;;;54.23;28.63;;;7.50;81.90;;;;;;5078299;28;20218;-75
2022/12/27 07:38:31;;;;;;;56.03;30.13;;;7.40;81.70;;;;;;5077187;28;20182;-76
2022/12/27 07:41:00;;;;;;;58.23;29.17;;;7.40;81.40;;;;;;5079788;28;20178;-76
2022/12/27 07:43:29;;;;;;;57.07;29.00;;;7.30;81.60;;;;;;5080813;28;20182;-76
2022/12/27 07:46:01;;;;;;;63.93;29.50;;;7.30;81.70;;;;;;5072026;28;20178;-76
2022/12/27 07:48:27;;;;;;;54.33;26.20;;;7.30;81.80;;;;;;5075430;28;20741;-78
2022/12/27 07:50:56;;;;;;;56.07;28.33;;;7.30;82.40;;;;;;5075373;28;20186;-77
2022/12/27 07:53:22;;;;;;;46.80;27.33;;;7.50;83.80;;;;;;5070139;28;20241;-76
2022/12/27 07:55:49;;;;;;;50.53;27.30;;;7.80;84.80;;;;;;5074197;28;20241;-77
2022/12/27 07:58:16;;;;;;;51.40;28.53;;;8.30;85.50;;;;;;5074149;28;20278;-76
2022/12/27 08:00:44;;;;;;;55.83;28.77;;;8.90;85.40;;;;;;5077033;28;20248;-75
2022/12/27 08:03:10;;;;;;;48.30;26.90;;;9.50;83.40;;;;;;5073921;28;20191;-77
2022/12/27 08:05:35;;;;;;;53.17;28.55;;;10.00;81.00;;;;;;5073482;28;20191;-76
2022/12/27 08:08:01;;;;;;;52.85;27.85;;;10.50;80.60;;;;;;5077124;28;20913;-76
2022/12/27 08:10:27;;;;;;;53.50;28.92;;;11.00;78.40;;;;;;5075463;28;20565;-76
2022/12/27 08:12:53;;;;;;;51.60;26.98;;;11.50;78.20;;;;;;5077181;28;20190;-76
2022/12/27 08:15:18;;;;;;;54.90;29.08;;;12.00;76.50;;;;;;5073008;28;20179;-77
2022/12/27 08:17:44;;;;;;;57.85;28.20;;;12.30;74.60;;;;;;5077581;28;20171;-75
2022/12/27 08:20:13;;;;;;;48.20;28.88;;;12.80;75.50;;;;;;5071323;28;20557;-75
2022/12/27 08:22:39;;;;;;;47.00;26.75;;;13.30;74.20;;;;;;5077417;28;20198;-74
2022/12/27 08:25:05;;;;;;;49.20;27.75;;;13.80;74.30;;;;;;5075285;28;20251;-76
2022/12/27 08:27:31;;;;;;;41.53;23.42;;;14.30;72.40;;;;;;5074871;28;20291;-75
2022/12/27 08:29:56;;;;;;;46.25;26.67;;;14.80;71.80;;;;;;5073257;28;21405;-75
2022/12/27 08:32:22;;;;;;;44.67;26.98;;;15.30;71.70;;;;;;5077918;28;20186;-76
2022/12/27 08:34:48;;;;;;;45.20;26.52;;;15.80;69.20;;;;;;5075175;28;20681;-74
2022/12/27 08:37:14;;;;;;;44.88;26.15;;;16.10;67.40;;;;;;5076044;28;20206;-75
2022/12/27 08:39:40;;;;;;;39.28;24.90;;;16.50;68.30;;;;;;5079456;28;20178;-73
2022/12/27 08:42:08;;;;;;;40.42;25.13;;;16.80;66.10;;;;;;5077625;28;20269;-76
2022/12/27 08:44:34;;;;;;;41.63;27.70;;;17.00;65.20;;;;;;5076792;28;20628;-74
2022/12/27 08:47:00;;;;;;;44.85;27.13;;;17.20;64.70;;;;;;5074212;28;20183;-75
2022/12/27 08:49:25;;;;;;;48.17;28.80;;;17.30;64.20;;;;;;5075625;28;20189;-75
2022/12/27 08:51:51;;;;;;;49.55;28.30;;;17.50;64.30;;;;;;5071731;28;20237;-75
2022/12/27 08:54:17;;;;;;;47.15;27.73;;;17.70;63.30;;;;;;5073920;28;20354;-74
2022/12/27 08:56:42;;;;;;;41.80;25.27;;;17.90;63.70;;;;;;5069180;28;20696;-76
2022/12/27 08:59:08;;;;;;;43.42;28.10;;;18.10;63.80;;;;;;5073322;28;20250;-74
2022/12/27 09:01:33;;;;;;;40.50;24.80;;;18.30;63.00;;;;;;5070747;28;20186;-75
2022/12/27 09:03:59;;;;;;;37.30;24.83;;;18.50;62.40;;;;;;5070069;28;20904;-75
2022/12/27 09:06:26;;;;;;;36.05;25.05;;;18.70;62.30;;;;;;5075825;28;20397;-75
2022/12/27 09:08:54;;;;;;;31.85;22.40;;;18.90;61.50;;;;;;5070772;28;20262;-76
2022/12/27 09:11:26;;;;;;;31.98;21.95;;;19.10;62.30;;;;;;5055323;28;20186;-76
2022/12/27 09:13:52;;;;;;;29.40;19.58;;;19.30;61.30;;;;;;5070891;28;20182;-74
2022/12/27 09:16:23;;;;;;;28.02;19.35;;;19.50;60.80;;;;;;5072014;28;20211;-74
2022/12/27 09:18:51;;;;;;;23.95;18.35;;;19.60;60.90;;;;;;5071206;28;20186;-74
2022/12/27 09:21:18;;;;;;;23.80;17.02;;;19.70;59.90;;;;;;5068575;28;20198;-74
2022/12/27 09:23:44;;;;;;;26.15;16.63;;;19.70;55.20;;;;;;5072922;28;20558;-74
2022/12/27 09:26:15;;;;;;;21.88;16.38;;;19.50;59.10;;;;;;5073210;28;20619;-75
2022/12/27 09:28:42;;;;;;;21.20;15.23;;;19.60;59.80;;;;;;5074503;28;20862;-74
2022/12/27 09:31:09;;;;;;;28.13;17.80;;;19.80;60.10;;;;;;5073192;28;20185;-74
2022/12/27 09:33:35;;;;;;;24.83;16.45;;;20.10;59.60;;;;;;5074547;28;20216;-74
2022/12/27 09:36:08;;;;;;;16.30;12.35;;;20.40;59.10;;;;;;5074907;28;21409;-74
2022/12/27 09:38:35;;;;;;;18.25;12.35;;;20.60;58.80;;;;;;5072479;28;20183;-74
2022/12/27 09:41:05;;;;;;;15.73;11.73;;;21.00;59.00;;;;;;5072523;28;20265;-74
2022/12/27 09:43:40;;;;;;;14.73;11.40;;;21.30;57.30;;;;;;5070052;28;20174;-73
2022/12/27 09:46:15;;;;;;;20.50;13.40;;;21.60;58.60;;;;;;5074264;28;20192;-73
2022/12/27 09:48:41;;;;;;;22.77;14.57;;;22.00;58.60;;;;;;5068477;28;20289;-73
2022/12/27 09:51:39;;;;;;;13.50;11.13;;;22.40;56.50;;;;;;5066923;28;20221;-74
2022/12/27 09:54:27;;;;;;;16.17;12.20;;;22.80;54.90;;;;;;5071749;28;20182;-75
2022/12/27 09:56:53;;;;;;;15.13;12.15;;;23.00;55.60;;;;;;5074026;28;20298;-73
2022/12/27 09:59:30;;;;;;;16.73;13.48;;;23.20;55.80;;;;;;5073806;28;20257;-73
2022/12/27 10:01:56;;;;;;;18.55;13.80;;;23.40;56.20;;;;;;5077299;28;20719;-74
2022/12/27 10:04:22;;;;;;;18.63;13.32;;;23.70;55.70;;;;;;5073919;28;20186;-74
2022/12/27 10:06:47;;;;;;;19.42;14.52;;;24.00;55.20;;;;;;5054229;28;20183;-73
2022/12/27 10:09:31;;;;;;;26.08;19.08;;;24.20;54.90;;;;;;5068964;28;20186;-75
2022/12/27 10:12:22;;;;;;;33.40;24.23;;;24.40;53.30;;;;;;5069650;28;20784;-75
2022/12/27 10:15:26;;;;;;;42.80;29.05;;;24.40;53.20;;;;;;5071798;28;20186;-74
2022/12/27 10:18:10;;;;;;;50.30;29.75;;;24.50;52.90;;;;;;4993438;28;20648;-74
2022/12/27 10:21:21;;;;;;;48.55;29.23;;;24.60;53.30;;;;;;4998222;28;20188;-73
2022/12/27 10:23:54;;;;;;;38.50;26.13;;;24.50;50.90;;;;;;4942067;28;20234;-74
2022/12/27 10:26:21;;;;;;;37.55;24.42;;;24.50;55.20;;;;;;4941680;29;20206;-75
2022/12/27 10:28:53;;;;;;;33.67;24.23;;;24.70;53.90;;;;;;4941753;29;20700;-73
2022/12/27 10:31:22;;;;;;;41.72;25.98;;;24.90;52.80;;;;;;4941849;28;20209;-74
2022/12/27 10:33:49;;;;;;;35.47;26.02;;;25.10;52.60;;;;;;4941218;29;20191;-74
2022/12/27 10:36:33;;;;;;;40.55;25.85;;;25.20;53.60;;;;;;4941734;29;20215;-75
2022/12/27 10:39:02;;;;;;;40.95;28.80;;;25.20;52.80;;;;;;4939780;28;20214;-74
2022/12/27 10:41:31;;;;;;;41.00;29.20;;;25.30;53.70;;;;;;4939768;29;20186;-74
2022/12/27 10:43:56;;;;;;;41.17;29.85;;;25.40;51.20;;;;;;4937149;28;21092;-74
2022/12/27 10:46:25;;;;;;;40.55;28.92;;;25.40;52.90;;;;;;4940954;28;20227;-74
2022/12/27 10:48:59;;;;;;;35.17;25.80;;;25.50;52.50;;;;;;4939754;28;20187;-75
2022/12/27 10:51:27;;;;;;;32.35;24.17;;;25.60;54.30;;;;;;4938356;28;22123;-74
2022/12/27 10:54:00;;;;;;;35.17;22.85;;;25.70;53.40;;;;;;4977486;28;20272;-75
2022/12/27 10:56:32;;;;;;;31.05;23.02;;;25.80;52.40;;;;;;5002590;28;20262;-74
2022/12/27 10:59:23;;;;;;;37.28;22.77;;;26.00;53.30;;;;;;5075820;28;20198;-74
2022/12/27 11:02:01;;;;;;;36.58;22.60;;;26.10;52.70;;;;;;5071833;28;20199;-76
2022/12/27 11:04:29;;;;;;;31.85;22.85;;;26.30;51.10;;;;;;5075987;28;20674;-76
2022/12/27 11:07:01;;;;;;;33.55;23.65;;;26.40;49.10;;;;;;5075649;28;20191;-72
2022/12/27 11:09:29;;;;;;;37.42;23.00;;;26.10;50.40;;;;;;5074882;28;20279;-74
2022/12/27 11:12:13;;;;;;;24.02;18.77;;;25.60;47.10;;;;;;5073211;28;20258;-76
2022/12/27 11:14:42;;;;;;;23.02;17.00;;;25.50;50.10;;;;;;5058804;28;20182;-75
2022/12/27 11:17:13;;;;;;;20.65;16.45;;;25.30;52.10;;;;;;5078936;28;20218;-80
2022/12/27 11:19:44;;;;;;;18.13;14.20;;;25.20;53.30;;;;;;5078309;28;20187;-76
2022/12/27 11:22:10;;;;;;;18.73;13.80;;;25.20;51.20;;;;;;5075228;28;20191;-76
2022/12/27 11:24:36;;;;;;;19.25;12.05;;;25.10;52.30;;;;;;5057921;28;20193;-76
2022/12/27 11:27:02;;;;;;;14.75;11.57;;;25.10;53.00;;;;;;5079026;28;20269;-83
2022/12/27 11:29:31;;;;;;;16.40;11.25;;;25.10;53.40;;;;;;5076949;28;20232;-76
2022/12/27 11:32:04;;;;;;;15.60;11.50;;;25.20;53.30;;;;;;5075133;28;20248;-77
2022/12/27 11:34:35;;;;;;;19.92;13.13;;;25.40;53.10;;;;;;5069887;28;20187;-76
2022/12/27 11:37:13;;;;;;;16.23;12.30;;;25.50;52.60;;;;;;5077137;28;20244;-77
2022/12/27 11:39:43;;;;;;;18.42;13.38;;;25.60;53.40;;;;;;5076386;28;20294;-76
2022/12/27 11:42:24;;;;;;;16.88;12.88;;;25.60;53.10;;;;;;5072849;28;20735;-74
2022/12/27 11:45:08;;;;;;;16.25;12.63;;;25.70;51.10;;;;;;5074546;28;20599;-75
2022/12/27 11:47:40;;;;;;;17.80;14.13;;;25.80;52.20;;;;;;5073555;28;20238;-77
2022/12/27 11:50:30;;;;;;;25.40;17.73;;;25.90;51.80;;;;;;5071310;28;20221;-75
2022/12/27 11:53:18;;;;;;;38.67;21.23;;;26.00;50.20;;;;;;5072507;28;20190;-73
2022/12/27 11:56:21;;;;;;;24.85;18.02;;;26.00;51.00;;;;;;5074317;28;20295;-74
2022/12/27 11:59:05;;;;;;;23.65;16.95;;;25.80;49.30;;;;;;5075003;28;20180;-74
2022/12/27 12:02:02;;;;;;;22.80;16.95;;;25.20;49.90;;;;;;5076064;28;20179;-73
2022/12/27 12:04:42;;;;;;;26.92;17.63;;;24.00;48.50;;;;;;5074649;28;20301;-73
2022/12/27 12:07:33;;;;;;;23.02;16.23;;;23.10;54.40;;;;;;5073630;28;20254;-73
2022/12/27 12:10:43;;;;;;;22.73;16.98;;;22.40;53.30;;;;;;5070281;28;20672;-74
2022/12/27 12:13:45;;;;;;;23.25;16.00;;;21.20;55.60;;;;;;4988483;28;20190;-72
2022/12/27 12:16:28;;;;;;;20.42;15.45;;;20.60;55.80;;;;;;4988759;28;21308;-73
2022/12/27 12:19:15;;;;;;;22.80;15.98;;;19.90;58.40;;;;;;4987188;28;20583;-72
2022/12/27 12:21:55;;;;;;;26.25;16.80;;;19.40;55.80;;;;;;4986346;28;20226;-73
2022/12/27 12:24:58;;;;;;;24.90;17.83;;;19.10;58.30;;;;;;4983441;28;20248;-75
2022/12/27 12:28:15;;;;;;;33.33;19.55;;;18.60;57.60;;;;;;4986477;28;20186;-74
2022/12/27 12:31:18;;;;;;;25.55;18.45;;;18.10;58.50;;;;;;4914177;29;20206;-74
2022/12/27 12:34:14;;;;;;;25.83;18.55;;;17.70;59.10;;;;;;4918739;29;20191;-73
2022/12/27 12:36:54;;;;;;;29.88;18.50;;;17.20;60.40;;;;;;4918111;29;20257;-74
2022/12/27 12:39:38;;;;;;;29.70;17.77;;;16.90;60.90;;;;;;4915631;29;21783;-73
2022/12/27 12:42:06;;;;;;;24.42;17.70;;;16.60;61.10;;;;;;4918295;29;20184;-73
2022/12/27 12:45:04;;;;;;;32.42;18.38;;;16.20;61.80;;;;;;4916779;29;20210;-74
2022/12/27 12:47:48;;;;;;;31.45;18.80;;;15.70;63.30;;;;;;4916175;29;20215;-73
2022/12/27 12:50:43;;;;;;;25.35;16.73;;;15.60;63.80;;;;;;4950901;28;20212;-73
2022/12/27 12:53:52;;;;;;;28.90;17.70;;;15.60;63.10;;;;;;4943134;28;20694;-74
2022/12/27 12:56:40;;;;;;;25.95;17.15;;;15.40;63.60;;;;;;4875416;29;21246;-73
2022/12/27 12:59:37;;;;;;;23.77;16.70;;;15.30;64.10;;;;;;4878183;29;20871;-75
2022/12/27 13:02:24;;;;;;;27.10;15.23;;;15.30;64.30;;;;;;4875135;29;20185;-75
2022/12/27 13:05:26;;;;;;;16.95;11.15;;;15.40;63.80;;;;;;4876900;29;20208;-75
2022/12/27 13:07:58;;;;;;;15.40;10.13;;;15.40;64.60;;;;;;4884471;29;20196;-74
2022/12/27 13:10:26;;;;;;;11.18;8.65;;;15.40;64.70;;;;;;4884502;29;20691;-74
2022/12/27 13:13:29;;;;;;;13.30;8.70;;;15.40;64.60;;;;;;4885215;29;20353;-75
2022/12/27 13:16:05;;;;;;;8.32;6.50;;;15.50;65.10;;;;;;4885034;29;20256;-75
2022/12/27 13:18:33;;;;;;;8.38;6.32;;;15.50;65.90;;;;;;4882862;29;20193;-74
2022/12/27 13:21:19;;;;;;;5.10;4.45;;;15.50;65.80;;;;;;4882449;29;20197;-75
2022/12/27 13:24:10;;;;;;;4.30;2.90;;;15.50;66.20;;;;;;4885223;29;20630;-74
2022/12/27 13:27:14;;;;;;;2.13;2.03;;;15.40;67.30;;;;;;4884547;29;20693;-73
2022/12/27 13:30:04;;;;;;;4.38;1.98;;;15.20;67.80;;;;;;4873348;29;20196;-75
2022/12/27 13:33:08;;;;;;;2.60;1.45;;;15.10;66.80;;;;;;4936600;28;20193;-74
2022/12/27 13:35:34;;;;;;;1.80;1.55;;;15.00;68.00;;;;;;4969475;28;20240;-74
2022/12/27 13:38:47;;;;;;;3.25;2.20;;;14.90;68.10;;;;;;4967068;28;20220;-74
2022/12/27 13:41:56;;;;;;;1.50;1.40;;;14.90;68.00;;;;;;4916677;29;20784;-75
2022/12/27 13:44:31;;;;;;;1.67;1.58;;;14.70;68.70;;;;;;4919279;29;20196;-74
2022/12/27 13:47:17;;;;;;;2.13;1.90;;;14.60;69.20;;;;;;4917641;29;20207;-75
2022/12/27 13:49:51;;;;;;;1.88;1.77;;;14.60;69.30;;;;;;4915383;29;20251;-74
2022/12/27 13:52:39;;;;;;;2.88;2.03;;;14.50;69.30;;;;;;4914175;29;20675;-74
2022/12/27 13:55:34;;;;;;;2.30;2.15;;;14.40;70.00;;;;;;4915249;29;20203;-74
2022/12/27 13:58:08;;;;;;;2.58;2.38;;;14.40;69.80;;;;;;4916821;29;20210;-74
2022/12/27 14:00:49;;;;;;;2.47;2.33;;;14.30;69.80;;;;;;4913236;29;20258;-73
2022/12/27 14:03:34;;;;;;;2.22;2.13;;;14.10;71.00;;;;;;4913826;29;20219;-74
2022/12/27 14:06:12;;;;;;;2.78;2.15;;;14.00;70.90;;;;;;4955564;28;20200;-73
2022/12/27 14:08:54;;;;;;;2.63;1.95;;;14.00;71.20;;;;;;4975015;28;20209;-75
2022/12/27 14:12:03;;;;;;;2.72;2.55;;;13.70;72.20;;;;;;4976813;28;20201;-74
2022/12/27 14:14:30;;;;;;;2.38;2.17;;;13.70;72.20;;;;;;4957055;28;20235;-74
2022/12/27 14:17:17;;;;;;;1.92;1.75;;;13.60;73.10;;;;;;5017852;28;20220;-74
2022/12/27 14:20:07;;;;;;;1.70;1.70;;;13.70;72.60;;;;;;5015400;28;20203;-74
2022/12/27 14:22:45;;;;;;;1.98;1.88;;;13.50;73.80;;;;;;5000547;28;20226;-74
2022/12/27 14:25:29;;;;;;;4.25;2.20;;;13.40;74.00;;;;;;5014869;28;20192;-73
2022/12/27 14:28:36;;;;;;;1.83;1.70;;;13.50;73.60;;;;;;5017283;28;20293;-74
2022/12/27 14:31:35;;;;;;;2.97;2.40;;;13.40;74.50;;;;;;5018407;28;20196;-74
2022/12/27 14:34:18;;;;;;;2.58;2.38;;;13.40;73.90;;;;;;5020775;28;20195;-74
2022/12/27 14:37:11;;;;;;;2.28;2.17;;;13.30;74.40;;;;;;5020194;28;20301;-74
2022/12/27 14:39:52;;;;;;;2.00;1.50;;;13.20;74.80;;;;;;5022756;28;20196;-73
2022/12/27 14:42:59;;;;;;;1.90;1.80;;;13.10;75.70;;;;;;5023503;28;20188;-74
2022/12/27 14:45:30;;;;;;;1.48;1.45;;;13.00;74.90;;;;;;5022612;28;20252;-73
2022/12/27 14:48:24;;;;;;;2.78;2.00;;;13.00;75.80;;;;;;5020705;28;20269;-73